Newburg, Iowa
Current Conditions -  °F | °C
As of 8:15 AM on Thursday 27 Nov 2014 (Local Time) from KGGI Reporting Station
Clear Clear  
Wind Chill: -14°   Ceiling: Unl
Heat Index:   Visibility: 10mi
Dew Point: -4°   Wind: 10mph
Humidity: 79%   Direction: 300°WNW
Pressure: 30.48"   Gusts: NA
Location:  41.7319°N, 92.7662°W
Report Text: KGGI 271415Z AUTO 30009KT 10SM CLR M17/M20 A3048 RMK AO2 T11701198
Loading
Personal Weather Stations






























Interactive Weather Map New forecast layout! Learn more

10-Day Weather Forecast

Advertisements
Track Severe Weather on mobile